Time;durP1;ratioP1;P1;durP2;ratioP2;P2;SDS_P1;SDS_P2;PMS_P1;PMS_P2;Temp;Humidity;BMP_temperature;BMP_pressure;BME280_temperature;BME280_humidity;BME280_pressure;Samples;Min_cycle;Max_cycle;Signal;HPM_P1;HPM_P2
2022/10/27 00:00:46;;;;;;;10.48;4.75;;;8.50;99.90;;;;;;5077019;28;20021;-71
2022/10/27 00:03:14;;;;;;;18.35;5.50;;;8.50;99.90;;;;;;5059223;28;20107;-71
2022/10/27 00:05:43;;;;;;;14.55;5.40;;;8.60;99.90;;;;;;5076730;28;20017;-71
2022/10/27 00:08:17;;;;;;;15.55;4.57;;;8.60;99.90;;;;;;5076921;28;20017;-71
2022/10/27 00:10:56;;;;;;;11.15;5.18;;;8.60;99.90;;;;;;5077243;28;20406;-71
2022/10/27 00:13:25;;;;;;;11.50;5.05;;;8.50;99.90;;;;;;5076755;28;20027;-71
2022/10/27 00:16:17;;;;;;;11.23;5.45;;;8.50;99.90;;;;;;5076562;28;20035;-71
2022/10/27 00:18:45;;;;;;;8.00;3.83;;;8.50;99.90;;;;;;5076422;28;20029;-71
2022/10/27 00:21:15;;;;;;;10.65;4.18;;;8.60;99.90;;;;;;5076225;28;20025;-71
2022/10/27 00:23:43;;;;;;;12.82;4.20;;;8.60;99.90;;;;;;5077000;28;20336;-71
2022/10/27 00:26:13;;;;;;;10.27;4.13;;;8.60;99.90;;;;;;5076775;28;20055;-71
2022/10/27 00:28:40;;;;;;;9.70;4.30;;;8.60;99.90;;;;;;5076359;28;20025;-71
2022/10/27 00:31:19;;;;;;;8.80;4.70;;;8.60;99.90;;;;;;5077030;28;20086;-71
2022/10/27 00:33:48;;;;;;;12.07;4.63;;;8.60;99.90;;;;;;5076898;28;20366;-71
2022/10/27 00:36:21;;;;;;;14.30;4.40;;;8.60;99.90;;;;;;5076707;28;20016;-71
2022/10/27 00:38:48;;;;;;;11.25;5.07;;;8.70;99.90;;;;;;5076303;28;20056;-71
2022/10/27 00:41:40;;;;;;;9.38;3.95;;;8.70;99.90;;;;;;5076928;28;20032;-71
2022/10/27 00:44:36;;;;;;;7.90;4.35;;;8.70;99.90;;;;;;5076267;28;20048;-71
2022/10/27 00:47:14;;;;;;;6.95;3.20;;;8.60;99.90;;;;;;5076568;28;20056;-71
2022/10/27 00:50:06;;;;;;;13.00;4.85;;;8.60;99.90;;;;;;5076490;28;20028;-71
2022/10/27 00:52:35;;;;;;;10.15;4.20;;;8.50;99.90;;;;;;5076331;28;20035;-71
2022/10/27 00:55:15;;;;;;;9.38;4.60;;;8.50;99.90;;;;;;5076351;28;20048;-71
2022/10/27 00:57:47;;;;;;;14.07;4.40;;;8.50;99.90;;;;;;5076481;28;20016;-71
2022/10/27 01:00:15;;;;;;;7.53;4.00;;;8.60;99.90;;;;;;5075019;28;20021;-71
2022/10/27 01:02:43;;;;;;;9.38;4.03;;;8.60;99.90;;;;;;5076379;28;20020;-71
2022/10/27 01:05:22;;;;;;;10.10;3.88;;;8.70;99.90;;;;;;5076116;28;20025;-71
2022/10/27 01:07:50;;;;;;;13.38;5.25;;;8.70;99.90;;;;;;5076025;28;20154;-71
2022/10/27 01:10:18;;;;;;;13.93;5.90;;;8.60;99.90;;;;;;5075989;28;20024;-71
2022/10/27 01:12:46;;;;;;;11.32;4.80;;;8.70;99.90;;;;;;5076146;28;20032;-71
2022/10/27 01:15:13;;;;;;;16.38;4.90;;;8.70;99.90;;;;;;5076162;28;20020;-71
2022/10/27 01:18:08;;;;;;;10.93;5.18;;;8.70;99.90;;;;;;5058223;28;20031;-71
2022/10/27 01:20:53;;;;;;;13.07;5.15;;;8.80;99.90;;;;;;5076278;28;20033;-71
2022/10/27 01:23:36;;;;;;;13.57;5.38;;;8.80;99.90;;;;;;5076708;28;20048;-71
2022/10/27 01:26:17;;;;;;;7.95;5.43;;;8.90;99.90;;;;;;5075961;28;20032;-71
2022/10/27 01:29:15;;;;;;;12.02;5.35;;;8.90;99.90;;;;;;5075963;28;20029;-71
2022/10/27 01:32:00;;;;;;;15.00;5.95;;;8.90;99.90;;;;;;5078569;28;20017;-71
2022/10/27 01:34:49;;;;;;;11.90;5.60;;;8.90;99.90;;;;;;5079812;28;20114;-71
2022/10/27 01:37:27;;;;;;;9.57;4.90;;;8.90;99.90;;;;;;5079767;28;20081;-71
2022/10/27 01:40:26;;;;;;;11.63;5.35;;;8.80;99.90;;;;;;5079964;28;20028;-71
2022/10/27 01:43:03;;;;;;;10.18;4.57;;;8.90;99.90;;;;;;5079521;28;20024;-71
2022/10/27 01:45:34;;;;;;;12.60;5.05;;;8.80;99.90;;;;;;5061462;28;20034;-71
2022/10/27 01:48:04;;;;;;;14.10;5.95;;;8.90;99.90;;;;;;5079289;28;20028;-71
2022/10/27 01:50:41;;;;;;;12.60;4.70;;;8.80;99.90;;;;;;5079139;28;20428;-71
2022/10/27 01:53:14;;;;;;;10.55;4.55;;;8.80;99.90;;;;;;5079387;28;20021;-71
2022/10/27 01:55:48;;;;;;;14.57;5.82;;;8.80;99.90;;;;;;5078865;28;20114;-71
2022/10/27 01:58:31;;;;;;;15.25;5.05;;;8.80;99.90;;;;;;5079370;28;20021;-71
2022/10/27 02:01:26;;;;;;;11.43;4.40;;;8.80;99.90;;;;;;5079486;28;20416;-71
2022/10/27 02:03:54;;;;;;;7.55;4.20;;;8.70;99.90;;;;;;5079427;28;20062;-71
2022/10/27 02:06:49;;;;;;;9.93;4.28;;;8.70;99.90;;;;;;5079781;28;20013;-71
2022/10/27 02:09:44;;;;;;;12.65;3.75;;;8.60;99.90;;;;;;5078570;28;20035;-71
2022/10/27 02:12:28;;;;;;;10.82;4.95;;;8.60;99.90;;;;;;5078422;28;20052;-71
2022/10/27 02:14:58;;;;;;;13.55;4.78;;;8.60;99.90;;;;;;5079012;28;20013;-71
2022/10/27 02:17:38;;;;;;;5.95;3.70;;;8.50;99.90;;;;;;5078910;28;20405;-71
2022/10/27 02:20:13;;;;;;;13.45;4.25;;;8.50;99.90;;;;;;5078672;28;20025;-71
2022/10/27 02:22:44;;;;;;;10.27;3.78;;;8.50;99.90;;;;;;5060877;28;20024;-71
2022/10/27 02:25:11;;;;;;;10.15;3.78;;;8.50;99.90;;;;;;5078598;28;20021;-71
2022/10/27 02:27:47;;;;;;;10.10;3.83;;;8.50;99.90;;;;;;5044558;28;20476;-71
2022/10/27 02:30:15;;;;;;;12.38;4.32;;;8.50;99.90;;;;;;5060567;28;20383;-71
2022/10/27 02:32:43;;;;;;;9.75;4.03;;;8.50;99.90;;;;;;5079030;28;20100;-71
2022/10/27 02:35:12;;;;;;;15.68;4.32;;;8.60;99.90;;;;;;5078406;28;20472;-71
2022/10/27 02:37:42;;;;;;;10.43;4.88;;;8.60;99.90;;;;;;5078408;28;20028;-71
2022/10/27 02:40:10;;;;;;;12.05;4.47;;;8.60;99.90;;;;;;5078277;28;20069;-71
2022/10/27 02:42:37;;;;;;;9.13;4.80;;;8.70;99.90;;;;;;5077410;28;20406;-71
2022/10/27 02:45:05;;;;;;;14.55;4.70;;;8.70;99.90;;;;;;5078116;28;20081;-71
2022/10/27 02:47:32;;;;;;;17.55;5.03;;;8.70;99.90;;;;;;5078852;28;20047;-71
2022/10/27 02:50:00;;;;;;;8.77;4.47;;;8.70;99.90;;;;;;5077941;28;20061;-71
2022/10/27 02:52:27;;;;;;;8.60;4.45;;;8.60;99.90;;;;;;5078334;28;20016;-71
2022/10/27 02:54:54;;;;;;;13.57;4.50;;;8.60;99.90;;;;;;5077827;28;20040;-71
2022/10/27 02:57:22;;;;;;;13.07;5.32;;;8.60;99.90;;;;;;5078117;28;20020;-71
2022/10/27 02:59:49;;;;;;;13.38;4.43;;;8.60;99.90;;;;;;5077842;28;20025;-71
2022/10/27 03:02:17;;;;;;;10.50;4.18;;;8.60;99.90;;;;;;5077804;28;20328;-71
2022/10/27 03:04:45;;;;;;;10.60;4.93;;;8.60;99.90;;;;;;5077116;28;20419;-71
2022/10/27 03:07:12;;;;;;;14.93;4.85;;;8.60;99.90;;;;;;5078188;28;20027;-71
2022/10/27 03:09:39;;;;;;;13.98;6.32;;;8.60;99.90;;;;;;5077651;28;20024;-71
2022/10/27 03:12:07;;;;;;;15.43;4.78;;;8.60;99.90;;;;;;5059956;28;20021;-71
2022/10/27 03:14:34;;;;;;;9.18;4.22;;;8.60;99.90;;;;;;5078083;28;20013;-71
2022/10/27 03:17:02;;;;;;;12.95;5.13;;;8.60;99.90;;;;;;5077757;28;20070;-71
2022/10/27 03:19:29;;;;;;;11.35;4.63;;;8.50;99.90;;;;;;5077538;28;20081;-71
2022/10/27 03:21:57;;;;;;;8.55;4.20;;;8.50;99.90;;;;;;5078074;28;20407;-71
2022/10/27 03:24:24;;;;;;;10.00;3.88;;;8.50;99.90;;;;;;5077454;28;20056;-71
2022/10/27 03:26:51;;;;;;;7.22;4.32;;;8.40;99.90;;;;;;5077318;28;20029;-71
2022/10/27 03:29:18;;;;;;;10.27;3.90;;;8.40;99.90;;;;;;5077199;28;20028;-71
2022/10/27 03:31:45;;;;;;;6.40;4.20;;;8.40;99.90;;;;;;5077703;28;20069;-71
2022/10/27 03:34:13;;;;;;;11.55;3.75;;;8.40;99.90;;;;;;5059504;28;20028;-71
2022/10/27 03:36:40;;;;;;;8.57;3.70;;;8.30;99.90;;;;;;5059508;28;20020;-71
2022/10/27 03:39:07;;;;;;;11.32;4.03;;;8.30;99.90;;;;;;5077702;28;20024;-71
2022/10/27 03:41:38;;;;;;;8.95;3.70;;;8.30;99.90;;;;;;5076028;28;20021;-71
2022/10/27 03:44:06;;;;;;;9.15;4.75;;;8.30;99.90;;;;;;5076993;28;20052;-71
2022/10/27 03:46:34;;;;;;;9.10;3.88;;;8.30;99.90;;;;;;5077180;28;20078;-71
2022/10/27 03:49:01;;;;;;;9.98;4.10;;;8.20;99.90;;;;;;5077045;28;20359;-71
2022/10/27 03:51:28;;;;;;;8.40;3.80;;;8.30;99.90;;;;;;5059171;28;20134;-71
2022/10/27 03:53:56;;;;;;;13.07;4.35;;;8.30;99.90;;;;;;5076920;28;20029;-71
2022/10/27 03:56:24;;;;;;;6.65;3.60;;;8.30;99.90;;;;;;5076651;28;20052;-71
2022/10/27 03:58:51;;;;;;;8.07;3.80;;;8.20;99.90;;;;;;5076739;28;20062;-71
2022/10/27 04:01:18;;;;;;;10.93;3.95;;;8.20;99.90;;;;;;5077316;28;20089;-71
2022/10/27 04:03:47;;;;;;;9.77;4.25;;;8.20;99.90;;;;;;5077256;28;20074;-71
2022/10/27 04:06:15;;;;;;;12.43;4.10;;;8.30;99.90;;;;;;5059149;28;20074;-71
2022/10/27 04:08:42;;;;;;;9.40;4.55;;;8.30;99.90;;;;;;5075583;28;20059;-71
2022/10/27 04:11:10;;;;;;;9.57;3.88;;;8.20;99.90;;;;;;5077227;28;20024;-71
2022/10/27 04:13:37;;;;;;;5.82;3.25;;;8.20;99.90;;;;;;5077095;28;20048;-71
2022/10/27 04:16:05;;;;;;;7.72;3.72;;;8.20;99.90;;;;;;5075549;28;20025;-71
2022/10/27 04:18:32;;;;;;;5.85;3.70;;;8.10;99.90;;;;;;5076560;28;20355;-71
2022/10/27 04:21:04;;;;;;;7.55;4.13;;;8.10;99.90;;;;;;5058903;28;20016;-71
2022/10/27 04:23:32;;;;;;;14.02;4.43;;;8.10;99.90;;;;;;5076714;28;20321;-71
2022/10/27 04:26:00;;;;;;;10.32;4.07;;;8.10;99.90;;;;;;5076799;28;20048;-71
2022/10/27 04:28:27;;;;;;;7.85;4.13;;;8.10;99.90;;;;;;5076426;28;20077;-71
2022/10/27 04:30:54;;;;;;;7.70;3.58;;;8.10;99.90;;;;;;5076428;28;20080;-71
2022/10/27 04:33:22;;;;;;;8.45;4.22;;;8.10;99.90;;;;;;5077157;28;20104;-71
2022/10/27 04:35:49;;;;;;;9.43;4.10;;;8.10;99.90;;;;;;5076411;28;20420;-71
2022/10/27 04:38:16;;;;;;;7.80;4.20;;;8.10;99.90;;;;;;5076403;28;20320;-71
2022/10/27 04:40:44;;;;;;;9.57;4.07;;;8.00;99.90;;;;;;5058597;28;20024;-71
2022/10/27 04:43:12;;;;;;;8.35;4.50;;;8.00;99.90;;;;;;5076289;28;20358;-71
2022/10/27 04:45:41;;;;;;;7.55;4.38;;;8.00;99.90;;;;;;5076424;28;20111;-71
2022/10/27 04:48:09;;;;;;;8.85;4.00;;;8.00;99.90;;;;;;5075255;28;20086;-71
2022/10/27 04:50:36;;;;;;;14.10;3.78;;;8.00;99.90;;;;;;5076786;28;20027;-71
2022/10/27 04:53:04;;;;;;;9.13;3.97;;;8.00;99.90;;;;;;5076979;28;20024;-71
2022/10/27 04:55:32;;;;;;;6.00;3.60;;;7.90;99.90;;;;;;5075931;28;20347;-71
2022/10/27 04:58:00;;;;;;;9.88;4.45;;;7.90;99.90;;;;;;5076257;28;20017;-71
2022/10/27 05:00:27;;;;;;;6.65;3.50;;;7.90;99.90;;;;;;5076640;28;20029;-71
2022/10/27 05:02:57;;;;;;;8.02;4.45;;;7.80;99.90;;;;;;5076293;28;20029;-71
2022/10/27 05:05:27;;;;;;;6.47;3.13;;;7.80;99.90;;;;;;5076708;28;20050;-72
2022/10/27 05:08:00;;;;;;;4.85;3.20;;;7.80;99.90;;;;;;5062314;28;20316;-71
2022/10/27 05:10:32;;;;;;;4.68;2.97;;;7.70;99.90;;;;;;5079937;28;20031;-71
2022/10/27 05:12:59;;;;;;;6.28;3.15;;;7.70;99.90;;;;;;5080366;28;20025;-71
2022/10/27 05:15:27;;;;;;;9.13;3.88;;;7.70;99.90;;;;;;5079857;28;20025;-71
2022/10/27 05:17:54;;;;;;;21.45;4.05;;;7.60;99.90;;;;;;5062575;28;20395;-71
2022/10/27 05:20:22;;;;;;;5.20;3.17;;;7.60;99.90;;;;;;5079707;28;20332;-71
2022/10/27 05:22:50;;;;;;;6.10;3.35;;;7.60;99.90;;;;;;5062187;28;20107;-71
2022/10/27 05:25:18;;;;;;;7.22;3.58;;;7.60;99.90;;;;;;5079708;28;20024;-71
2022/10/27 05:27:45;;;;;;;9.38;3.92;;;7.50;99.90;;;;;;5080257;28;20316;-71
2022/10/27 05:30:13;;;;;;;6.30;3.60;;;7.50;99.90;;;;;;5079405;28;20107;-71
2022/10/27 05:32:42;;;;;;;8.73;3.05;;;7.50;99.90;;;;;;5079662;28;20387;-71
2022/10/27 05:35:09;;;;;;;10.55;4.55;;;7.50;99.90;;;;;;5061743;28;20098;-71
2022/10/27 05:37:43;;;;;;;9.90;3.78;;;7.50;99.90;;;;;;5079516;28;20115;-71
2022/10/27 05:40:11;;;;;;;6.32;3.97;;;7.40;99.90;;;;;;5079946;28;20074;-71
2022/10/27 05:42:39;;;;;;;18.05;6.35;;;7.40;99.90;;;;;;5079554;28;20025;-71
2022/10/27 05:45:06;;;;;;;9.95;4.10;;;7.40;99.90;;;;;;5079543;28;20025;-71
2022/10/27 05:47:34;;;;;;;7.45;3.95;;;7.40;99.90;;;;;;5079850;28;20078;-72
2022/10/27 05:50:01;;;;;;;11.18;4.35;;;7.40;99.90;;;;;;5079125;28;20074;-72
2022/10/27 05:52:28;;;;;;;10.05;4.00;;;7.50;99.90;;;;;;5079732;28;20432;-72
2022/10/27 05:54:55;;;;;;;11.85;6.07;;;7.40;99.90;;;;;;5078835;28;20097;-71
2022/10/27 05:57:22;;;;;;;16.52;5.78;;;7.40;99.90;;;;;;5079008;28;20381;-71
2022/10/27 05:59:49;;;;;;;13.07;5.25;;;7.50;99.90;;;;;;5079309;28;20097;-74
2022/10/27 06:02:16;;;;;;;13.10;5.22;;;7.50;99.90;;;;;;5079612;28;20336;-74
2022/10/27 06:04:43;;;;;;;9.52;5.43;;;7.50;99.90;;;;;;5078955;28;20108;-73
2022/10/27 06:07:11;;;;;;;10.52;5.63;;;7.50;99.90;;;;;;5079649;28;20020;-73
2022/10/27 06:09:39;;;;;;;25.98;5.60;;;7.50;99.90;;;;;;5078831;28;20032;-73
2022/10/27 06:12:06;;;;;;;13.27;5.32;;;7.50;99.90;;;;;;5077824;28;20024;-75
2022/10/27 06:14:34;;;;;;;13.52;4.75;;;7.50;99.90;;;;;;5078742;28;20432;-73
2022/10/27 06:17:01;;;;;;;13.98;5.70;;;7.60;99.90;;;;;;5078493;28;20017;-76
2022/10/27 06:19:29;;;;;;;11.68;5.40;;;7.60;99.90;;;;;;5060418;28;20032;-76
2022/10/27 06:21:56;;;;;;;12.13;6.00;;;7.60;99.90;;;;;;5078988;28;20024;-75
2022/10/27 06:24:23;;;;;;;11.52;5.85;;;7.60;99.90;;;;;;5079171;28;20020;-76
2022/10/27 06:26:50;;;;;;;14.13;5.93;;;7.70;99.90;;;;;;5078757;28;20039;-76
2022/10/27 06:29:18;;;;;;;14.27;6.53;;;7.70;99.90;;;;;;5078348;28;20020;-76
2022/10/27 06:31:46;;;;;;;18.55;8.80;;;7.80;99.90;;;;;;5060802;28;20021;-76
2022/10/27 06:34:13;;;;;;;21.15;9.10;;;7.90;99.90;;;;;;5078689;28;20066;-77
2022/10/27 06:36:40;;;;;;;23.73;9.18;;;8.20;99.90;;;;;;5078854;28;20016;-77
2022/10/27 06:39:07;;;;;;;25.73;11.38;;;8.30;99.90;;;;;;5060550;28;20037;-77
2022/10/27 06:41:35;;;;;;;25.30;10.00;;;8.50;99.90;;;;;;5078287;28;20048;-77
2022/10/27 06:44:02;;;;;;;25.98;10.65;;;8.70;99.90;;;;;;5078410;28;20025;-74
2022/10/27 06:46:30;;;;;;;22.23;9.82;;;8.80;99.90;;;;;;5078742;28;20103;-74
2022/10/27 06:48:58;;;;;;;23.70;9.75;;;8.90;99.90;;;;;;5078373;28;20029;-77
2022/10/27 06:51:25;;;;;;;23.00;9.77;;;8.90;99.90;;;;;;5078062;28;20021;-75
2022/10/27 06:53:53;;;;;;;28.02;10.60;;;9.00;99.90;;;;;;5078330;28;20025;-76
2022/10/27 06:56:21;;;;;;;20.85;9.75;;;9.00;99.90;;;;;;5077762;28;20124;-75
2022/10/27 06:58:49;;;;;;;25.25;9.00;;;9.10;99.90;;;;;;5078282;28;20063;-72
2022/10/27 07:01:16;;;;;;;22.30;9.43;;;9.10;99.90;;;;;;5077819;28;20020;-74
2022/10/27 07:03:43;;;;;;;21.48;8.48;;;9.20;99.90;;;;;;5060141;28;20056;-71
2022/10/27 07:06:10;;;;;;;11.50;7.20;;;9.20;99.90;;;;;;5078315;28;20027;-72
2022/10/27 07:08:38;;;;;;;18.60;7.50;;;9.30;99.90;;;;;;5077647;28;20031;-72
2022/10/27 07:11:06;;;;;;;15.25;6.22;;;9.30;99.90;;;;;;5077683;28;20463;-72
2022/10/27 07:13:33;;;;;;;16.23;6.55;;;9.30;99.90;;;;;;5077644;28;20028;-72
2022/10/27 07:16:01;;;;;;;14.02;6.60;;;9.30;99.90;;;;;;5059960;28;20024;-72
2022/10/27 07:18:29;;;;;;;15.02;5.57;;;9.30;99.90;;;;;;5078165;28;20031;-72
2022/10/27 07:20:56;;;;;;;18.00;6.63;;;9.30;99.90;;;;;;5078100;28;20025;-72
2022/10/27 07:23:23;;;;;;;12.48;6.43;;;9.30;99.90;;;;;;5077665;28;20052;-72
2022/10/27 07:25:51;;;;;;;16.80;6.72;;;9.40;99.90;;;;;;5077434;28;20020;-72
2022/10/27 07:28:18;;;;;;;18.13;6.85;;;9.40;99.90;;;;;;5077184;28;20020;-72
2022/10/27 07:30:47;;;;;;;13.63;6.60;;;9.50;99.90;;;;;;5077708;28;20086;-72
2022/10/27 07:33:14;;;;;;;18.10;6.65;;;9.60;99.90;;;;;;5077419;28;20081;-72
2022/10/27 07:35:42;;;;;;;16.65;6.28;;;9.60;99.90;;;;;;5077292;28;20044;-72
2022/10/27 07:38:09;;;;;;;11.60;6.05;;;9.70;99.90;;;;;;5077779;28;20032;-72
2022/10/27 07:40:36;;;;;;;10.73;6.63;;;9.80;99.90;;;;;;5077165;28;20054;-72
2022/10/27 07:43:04;;;;;;;11.10;6.30;;;9.90;99.90;;;;;;5077278;28;20099;-72
2022/10/27 07:45:32;;;;;;;14.95;6.43;;;10.00;99.90;;;;;;5077030;28;20051;-72
2022/10/27 07:47:59;;;;;;;13.07;6.35;;;10.10;99.90;;;;;;5077363;28;20028;-72
2022/10/27 07:50:28;;;;;;;16.73;7.28;;;10.20;99.90;;;;;;5077213;28;20029;-72
2022/10/27 07:52:56;;;;;;;14.57;7.18;;;10.30;99.90;;;;;;5077700;28;20017;-72
2022/10/27 07:55:25;;;;;;;14.18;7.43;;;10.40;99.90;;;;;;5076652;28;20040;-72
2022/10/27 07:58:00;;;;;;;12.23;6.72;;;10.50;99.90;;;;;;5076945;28;20025;-73
2022/10/27 08:00:29;;;;;;;17.27;6.53;;;10.60;99.90;;;;;;5076861;28;20028;-72
2022/10/27 08:03:01;;;;;;;17.13;6.60;;;10.70;99.90;;;;;;5077264;28;20020;-72
2022/10/27 08:05:30;;;;;;;19.75;8.07;;;10.80;99.90;;;;;;5076808;28;20479;-73
2022/10/27 08:07:59;;;;;;;20.23;7.60;;;11.00;99.90;;;;;;5077378;28;20067;-73
2022/10/27 08:10:27;;;;;;;17.15;7.63;;;11.10;99.90;;;;;;5076661;28;20017;-72
2022/10/27 08:12:54;;;;;;;19.17;7.93;;;11.10;99.90;;;;;;5076883;28;20020;-73
2022/10/27 08:15:21;;;;;;;18.80;7.80;;;11.20;99.90;;;;;;5076600;28;20024;-73
2022/10/27 08:17:53;;;;;;;19.33;7.80;;;11.20;99.90;;;;;;5076692;28;20324;-72
2022/10/27 08:20:21;;;;;;;15.98;7.45;;;11.30;99.90;;;;;;5076625;28;20021;-72
2022/10/27 08:22:55;;;;;;;17.08;7.47;;;11.40;99.90;;;;;;5058976;28;20029;-73
2022/10/27 08:25:23;;;;;;;12.68;7.18;;;11.40;99.90;;;;;;5058780;28;20029;-72
2022/10/27 08:27:50;;;;;;;14.55;7.15;;;11.50;99.90;;;;;;5076807;28;20025;-72
2022/10/27 08:30:19;;;;;;;17.13;6.88;;;11.50;99.90;;;;;;5076359;28;20416;-73
2022/10/27 08:32:47;;;;;;;16.45;6.95;;;11.60;99.90;;;;;;5077117;28;20094;-72
2022/10/27 08:35:15;;;;;;;12.93;6.82;;;11.80;99.90;;;;;;5075634;28;20062;-73
2022/10/27 08:37:43;;;;;;;13.45;6.50;;;11.90;99.90;;;;;;5077181;28;20021;-73
2022/10/27 08:40:11;;;;;;;12.10;7.15;;;12.00;99.90;;;;;;5076451;28;20112;-73
2022/10/27 08:43:09;;;;;;;15.20;7.55;;;12.10;99.90;;;;;;5062506;28;20335;-73
2022/10/27 08:45:50;;;;;;;11.27;6.60;;;12.20;99.90;;;;;;5080629;28;20021;-73
2022/10/27 08:48:27;;;;;;;12.57;6.78;;;12.40;99.90;;;;;;5062943;28;20032;-73
2022/10/27 08:50:54;;;;;;;13.20;6.50;;;12.40;99.90;;;;;;5080438;28;20085;-73
2022/10/27 08:53:44;;;;;;;13.25;6.25;;;12.50;99.90;;;;;;5079338;28;20073;-72
2022/10/27 08:56:12;;;;;;;11.07;5.20;;;12.60;99.90;;;;;;5080049;28;20325;-73
2022/10/27 08:58:44;;;;;;;15.18;7.10;;;12.60;99.90;;;;;;5062681;28;20048;-73
2022/10/27 09:01:23;;;;;;;11.50;6.25;;;12.70;99.90;;;;;;5080239;28;20021;-73
2022/10/27 09:04:13;;;;;;;15.65;6.68;;;12.70;99.90;;;;;;5080506;28;20021;-73
2022/10/27 09:06:44;;;;;;;12.77;5.50;;;12.90;99.90;;;;;;5080294;28;20466;-73
2022/10/27 09:09:26;;;;;;;11.82;6.00;;;13.00;99.90;;;;;;5079947;28;20039;-73
2022/10/27 09:12:15;;;;;;;11.68;5.22;;;13.10;99.90;;;;;;5080090;28;20116;-73
2022/10/27 09:15:07;;;;;;;11.68;5.65;;;13.10;99.90;;;;;;5080164;28;20013;-73
2022/10/27 09:17:45;;;;;;;6.30;4.43;;;13.20;99.90;;;;;;5080101;28;20055;-73
2022/10/27 09:20:16;;;;;;;10.20;5.05;;;13.20;99.90;;;;;;5079850;28;20101;-72
2022/10/27 09:22:43;;;;;;;9.45;5.32;;;13.30;99.90;;;;;;5080115;28;20036;-72
2022/10/27 09:25:19;;;;;;;12.00;4.82;;;13.40;99.90;;;;;;5080294;28;20027;-73
2022/10/27 09:27:50;;;;;;;;;;;13.50;99.90;;;;;;5080329;28;20052;-73
2022/10/27 09:30:19;;;;;;;7.03;4.35;;;13.60;99.90;;;;;;5079609;28;19909;-73
2022/10/27 09:32:50;;;;;;;8.18;4.90;;;13.70;99.90;;;;;;5079655;28;20021;-73
2022/10/27 09:35:27;;;;;;;11.88;4.15;;;13.80;99.90;;;;;;5079584;28;20100;-73
2022/10/27 09:37:58;;;;;;;7.75;4.47;;;13.90;99.90;;;;;;5079532;28;20043;-73
2022/10/27 09:40:36;;;;;;;10.48;4.28;;;14.00;99.90;;;;;;5080037;28;20336;-73
2022/10/27 09:43:04;;;;;;;6.60;3.35;;;14.10;99.90;;;;;;5079621;28;20324;-73
2022/10/27 09:45:31;;;;;;;9.50;3.53;;;14.20;99.90;;;;;;5079342;28;20063;-73
2022/10/27 09:48:19;;;;;;;6.82;3.97;;;14.30;99.90;;;;;;5079524;28;20052;-73
2022/10/27 09:51:20;;;;;;;6.22;3.17;;;14.30;99.90;;;;;;5079243;28;20107;-73
2022/10/27 09:53:51;;;;;;;10.18;3.75;;;14.50;99.90;;;;;;5079381;28;20095;-73
2022/10/27 09:56:30;;;;;;;5.60;3.45;;;14.60;99.90;;;;;;5078893;28;20052;-73
2022/10/27 09:59:02;;;;;;;4.85;3.10;;;14.70;99.90;;;;;;5079286;28;20055;-73
2022/10/27 10:01:48;;;;;;;6.90;3.20;;;14.80;99.90;;;;;;5079378;28;20025;-73
2022/10/27 10:04:22;;;;;;;8.52;3.17;;;14.90;99.90;;;;;;5079116;28;20074;-73
2022/10/27 10:06:58;;;;;;;9.38;3.08;;;15.00;99.90;;;;;;5079458;28;20024;-73
2022/10/27 10:09:30;;;;;;;;;;;15.10;99.90;;;;;;5079602;28;20389;-73
2022/10/27 10:12:21;;;;;;;5.03;2.60;;;15.10;99.90;;;;;;5079215;28;19955;-73
2022/10/27 10:14:49;;;;;;;6.90;2.97;;;15.30;99.90;;;;;;5079090;28;20031;-73
2022/10/27 10:17:27;;;;;;;7.55;2.83;;;15.30;99.90;;;;;;5079567;28;20019;-73
2022/10/27 10:19:55;;;;;;;7.07;2.30;;;15.50;99.90;;;;;;5078760;28;20035;-73
2022/10/27 10:22:34;;;;;;;4.65;2.13;;;15.60;99.90;;;;;;5077647;28;20025;-73
2022/10/27 10:25:31;;;;;;;7.05;2.55;;;15.60;99.90;;;;;;5060879;28;20090;-73
2022/10/27 10:28:05;;;;;;;4.97;2.15;;;15.70;99.90;;;;;;5073797;28;20428;-73
2022/10/27 10:30:37;;;;;;;6.32;2.00;;;15.80;99.90;;;;;;5078455;28;20047;-73
2022/10/27 10:33:06;;;;;;;7.20;1.85;;;15.90;99.90;;;;;;5079410;28;20351;-73
2022/10/27 10:35:50;;;;;;;7.28;1.80;;;16.00;99.90;;;;;;5078469;28;20013;-73
2022/10/27 10:38:23;;;;;;;6.75;1.70;;;16.10;99.90;;;;;;5078715;28;20044;-73
2022/10/27 10:41:01;;;;;;;6.93;2.10;;;16.10;99.90;;;;;;5078910;28;20312;-73
2022/10/27 10:43:30;;;;;;;6.03;2.17;;;16.20;99.90;;;;;;5060659;28;20074;-73
2022/10/27 10:45:58;;;;;;;6.47;2.30;;;16.30;99.90;;;;;;5078178;28;20028;-73
2022/10/27 10:48:40;;;;;;;3.95;2.45;;;16.50;99.90;;;;;;5078847;28;20031;-73
2022/10/27 10:51:11;;;;;;;5.45;2.00;;;16.50;99.90;;;;;;5078186;28;20436;-73
2022/10/27 10:53:49;;;;;;;2.67;1.52;;;16.60;99.90;;;;;;5078685;28;20142;-73
2022/10/27 10:56:26;;;;;;;6.57;1.63;;;16.80;99.90;;;;;;5077852;28;20063;-73
2022/10/27 10:59:07;;;;;;;7.65;1.77;;;16.80;99.90;;;;;;5060130;28;20108;-73
2022/10/27 11:01:48;;;;;;;6.82;1.92;;;16.90;99.90;;;;;;5076868;28;20017;-73
2022/10/27 11:04:25;;;;;;;7.18;1.70;;;17.00;99.90;;;;;;5077800;28;20100;-73
2022/10/27 11:07:24;;;;;;;3.58;1.20;;;17.10;99.90;;;;;;5078051;28;20088;-73
2022/10/27 11:10:22;;;;;;;8.27;1.30;;;17.20;99.90;;;;;;5077711;28;20028;-73
2022/10/27 11:12:56;;;;;;;2.75;1.23;;;17.20;99.90;;;;;;5076704;28;20082;-73
2022/10/27 11:15:44;;;;;;;5.35;1.50;;;17.30;99.90;;;;;;5077671;28;20023;-73
2022/10/27 11:18:15;;;;;;;5.25;1.27;;;17.40;99.90;;;;;;5077733;28;20031;-73
2022/10/27 11:20:47;;;;;;;4.40;1.60;;;17.60;99.90;;;;;;5077491;28;20477;-73
2022/10/27 11:23:29;;;;;;;4.32;1.00;;;17.60;99.90;;;;;;5077529;28;20032;-71
2022/10/27 11:26:02;;;;;;;5.32;1.20;;;17.70;99.90;;;;;;5077329;28;20032;-73
2022/10/27 11:28:33;;;;;;;3.80;1.33;;;17.80;99.90;;;;;;5077519;28;20047;-73
2022/10/27 11:31:10;;;;;;;3.10;0.98;;;17.80;99.90;;;;;;5077250;28;20428;-72
2022/10/27 11:34:14;;;;;;;5.13;1.30;;;17.90;99.90;;;;;;5077308;28;20136;-72
2022/10/27 11:36:56;;;;;;;4.55;1.25;;;18.00;99.90;;;;;;5077344;28;20063;-72
2022/10/27 11:39:37;;;;;;;6.20;1.17;;;18.10;99.90;;;;;;5077028;28;20404;-71
2022/10/27 11:42:40;;;;;;;4.57;1.13;;;18.20;99.90;;;;;;5077763;28;20021;-71
2022/10/27 11:45:15;;;;;;;5.60;1.48;;;18.20;99.90;;;;;;5076906;28;20455;-71
2022/10/27 11:48:10;;;;;;;3.77;1.23;;;18.30;99.90;;;;;;5077708;28;20032;-70
2022/10/27 11:51:07;;;;;;;3.45;1.23;;;18.30;99.90;;;;;;5076897;28;20021;-70
2022/10/27 11:53:35;;;;;;;2.58;1.00;;;18.40;99.90;;;;;;5077267;28;20020;-70
2022/10/27 11:56:36;;;;;;;7.72;1.58;;;18.50;99.90;;;;;;5076661;28;20098;-70
2022/10/27 11:59:25;;;;;;;2.80;1.15;;;18.50;99.90;;;;;;5077042;28;20035;-70
2022/10/27 12:02:25;;;;;;;4.95;1.05;;;18.60;99.90;;;;;;5077141;28;20024;-70
2022/10/27 12:05:20;;;;;;;2.25;0.70;;;18.70;99.90;;;;;;5076702;28;20024;-69
2022/10/27 12:08:12;;;;;;;2.50;0.80;;;18.80;99.90;;;;;;5076682;28;20029;-70
2022/10/27 12:11:13;;;;;;;5.63;0.93;;;18.80;99.90;;;;;;5076571;28;20059;-70
2022/10/27 12:13:43;;;;;;;5.45;1.23;;;18.90;99.90;;;;;;5076677;28;20046;-70
2022/10/27 12:16:36;;;;;;;5.40;0.88;;;18.90;99.90;;;;;;5077132;28;20017;-70
2022/10/27 12:19:15;;;;;;;2.20;0.80;;;18.90;99.90;;;;;;5076882;28;20074;-71
2022/10/27 12:21:53;;;;;;;6.13;0.90;;;18.90;99.90;;;;;;5077482;28;20021;-70
2022/10/27 12:24:36;;;;;;;13.90;0.85;;;18.90;99.90;;;;;;5076503;28;20021;-70
2022/10/27 12:27:36;;;;;;;5.68;0.80;;;19.00;99.90;;;;;;5077126;28;20368;-70
2022/10/27 12:30:13;;;;;;;3.90;1.05;;;19.20;99.90;;;;;;5071417;28;20359;-70
2022/10/27 12:32:58;;;;;;;4.45;1.10;;;19.20;99.90;;;;;;5075269;28;20035;-70
2022/10/27 12:35:48;;;;;;;2.78;1.10;;;19.30;99.90;;;;;;5076506;28;20031;-70
2022/10/27 12:38:46;;;;;;;6.30;1.02;;;19.40;99.90;;;;;;5076727;28;20021;-70
2022/10/27 12:41:28;;;;;;;7.72;1.40;;;19.40;99.90;;;;;;5076939;28;20404;-70
2022/10/27 12:44:17;;;;;;;3.00;1.10;;;19.50;99.90;;;;;;5077072;28;20385;-70
2022/10/27 12:47:38;;;;;;;4.00;1.38;;;19.50;99.90;;;;;;5076963;28;20092;-70
2022/10/27 12:50:36;;;;;;;5.80;1.50;;;19.50;99.90;;;;;;5015135;28;20062;-70
2022/10/27 12:53:35;;;;;;;5.90;1.60;;;19.50;99.90;;;;;;5076392;28;20078;-70
2022/10/27 12:56:21;;;;;;;3.13;0.90;;;19.50;99.90;;;;;;5076074;28;20045;-70
2022/10/27 12:59:23;;;;;;;4.68;1.05;;;19.40;99.90;;;;;;5076638;28;20020;-70
2022/10/27 13:02:02;;;;;;;8.18;1.20;;;19.50;99.90;;;;;;5063530;28;20029;-70
2022/10/27 13:05:05;;;;;;;7.82;2.22;;;19.50;99.90;;;;;;5076132;28;20147;-70
2022/10/27 13:07:42;;;;;;;6.40;1.30;;;19.50;99.90;;;;;;5058550;28;20323;-70
2022/10/27 13:10:41;;;;;;;3.47;1.02;;;19.50;99.90;;;;;;5076615;28;20028;-70
2022/10/27 13:13:35;;;;;;;6.15;1.30;;;19.50;99.90;;;;;;5076554;28;20017;-70
2022/10/27 13:16:10;;;;;;;5.32;1.10;;;19.60;99.90;;;;;;5076519;28;20345;-70
2022/10/27 13:18:53;;;;;;;5.05;1.27;;;19.50;99.90;;;;;;5076582;28;20026;-70
2022/10/27 13:21:41;;;;;;;4.20;0.90;;;19.60;99.90;;;;;;5076536;28;20025;-70
2022/10/27 13:24:17;;;;;;;5.40;1.17;;;19.60;99.90;;;;;;5058141;28;20029;-70